sensor_id;sensor_type;location;lat;lon;timestamp;P1;durP1;ratioP1;P2;durP2;ratioP2
57101;SDS011;42982;54.558;18.508;2022-09-09T00:00:34;2.53;;;1.30;;
57101;SDS011;42982;54.558;18.508;2022-09-09T00:03:27;2.22;;;1.35;;
57101;SDS011;42982;54.558;18.508;2022-09-09T00:04:36;3.65;;;1.42;;
57101;SDS011;42982;54.558;18.508;2022-09-09T00:05:51;5.15;;;1.65;;
57101;SDS011;42982;54.558;18.508;2022-09-09T00:08:27;3.95;;;1.20;;
57101;SDS011;42982;54.558;18.508;2022-09-09T00:10:40;3.50;;;1.30;;
57101;SDS011;42982;54.558;18.508;2022-09-09T00:11:43;6.82;;;1.42;;
57101;SDS011;42982;54.558;18.508;2022-09-09T00:13:01;8.45;;;1.42;;
57101;SDS011;42982;54.558;18.508;2022-09-09T00:14:09;4.88;;;3.33;;
57101;SDS011;42982;54.558;18.508;2022-09-09T00:15:26;3.35;;;1.27;;
57101;SDS011;42982;54.558;18.508;2022-09-09T00:16:43;2.05;;;1.23;;
57101;SDS011;42982;54.558;18.508;2022-09-09T00:19:50;3.53;;;1.20;;
57101;SDS011;42982;54.558;18.508;2022-09-09T00:20:58;2.00;;;1.30;;
57101;SDS011;42982;54.558;18.508;2022-09-09T00:22:19;1.85;;;1.30;;
57101;SDS011;42982;54.558;18.508;2022-09-09T00:23:25;1.63;;;1.25;;
57101;SDS011;42982;54.558;18.508;2022-09-09T00:24:51;3.80;;;1.60;;
57101;SDS011;42982;54.558;18.508;2022-09-09T00:27:09;2.75;;;1.42;;
57101;SDS011;42982;54.558;18.508;2022-09-09T00:28:19;2.95;;;1.15;;
57101;SDS011;42982;54.558;18.508;2022-09-09T00:29:32;2.50;;;1.20;;
57101;SDS011;42982;54.558;18.508;2022-09-09T00:30:39;3.75;;;1.48;;
57101;SDS011;42982;54.558;18.508;2022-09-09T00:31:45;3.65;;;1.70;;
57101;SDS011;42982;54.558;18.508;2022-09-09T00:32:58;2.10;;;1.30;;
57101;SDS011;42982;54.558;18.508;2022-09-09T00:34:13;3.03;;;1.50;;
57101;SDS011;42982;54.558;18.508;2022-09-09T00:36:21;3.92;;;1.65;;
57101;SDS011;42982;54.558;18.508;2022-09-09T00:37:32;2.75;;;1.20;;
57101;SDS011;42982;54.558;18.508;2022-09-09T00:38:41;3.53;;;1.00;;
57101;SDS011;42982;54.558;18.508;2022-09-09T00:39:48;2.78;;;1.30;;
57101;SDS011;42982;54.558;18.508;2022-09-09T00:42:32;4.75;;;1.27;;
57101;SDS011;42982;54.558;18.508;2022-09-09T00:46:38;2.75;;;1.40;;
57101;SDS011;42982;54.558;18.508;2022-09-09T00:47:56;3.45;;;1.20;;
57101;SDS011;42982;54.558;18.508;2022-09-09T00:50:20;5.82;;;1.50;;
57101;SDS011;42982;54.558;18.508;2022-09-09T00:52:21;1.92;;;1.23;;
57101;SDS011;42982;54.558;18.508;2022-09-09T00:53:38;2.50;;;1.10;;
57101;SDS011;42982;54.558;18.508;2022-09-09T00:56:13;3.08;;;1.08;;
57101;SDS011;42982;54.558;18.508;2022-09-09T00:58:27;3.75;;;1.13;;
57101;SDS011;42982;54.558;18.508;2022-09-09T00:59:48;1.83;;;1.20;;
57101;SDS011;42982;54.558;18.508;2022-09-09T01:01:11;3.15;;;1.25;;
57101;SDS011;42982;54.558;18.508;2022-09-09T01:05:02;1.95;;;1.17;;
57101;SDS011;42982;54.558;18.508;2022-09-09T01:06:22;1.80;;;1.00;;
57101;SDS011;42982;54.558;18.508;2022-09-09T01:07:26;3.03;;;1.30;;
57101;SDS011;42982;54.558;18.508;2022-09-09T01:08:51;2.42;;;1.30;;
57101;SDS011;42982;54.558;18.508;2022-09-09T01:10:25;2.30;;;1.35;;
57101;SDS011;42982;54.558;18.508;2022-09-09T01:13:13;1.33;;;0.93;;
57101;SDS011;42982;54.558;18.508;2022-09-09T01:15:38;7.80;;;1.75;;
57101;SDS011;42982;54.558;18.508;2022-09-09T01:16:48;3.10;;;1.30;;
57101;SDS011;42982;54.558;18.508;2022-09-09T01:18:56;6.38;;;1.20;;
57101;SDS011;42982;54.558;18.508;2022-09-09T01:21:50;4.95;;;1.20;;
57101;SDS011;42982;54.558;18.508;2022-09-09T01:25:12;7.95;;;1.40;;
57101;SDS011;42982;54.558;18.508;2022-09-09T01:26:46;2.97;;;1.20;;
57101;SDS011;42982;54.558;18.508;2022-09-09T01:28:01;5.03;;;1.63;;
57101;SDS011;42982;54.558;18.508;2022-09-09T01:29:09;2.30;;;1.02;;
57101;SDS011;42982;54.558;18.508;2022-09-09T01:30:16;3.22;;;0.93;;
57101;SDS011;42982;54.558;18.508;2022-09-09T01:31:27;1.63;;;1.10;;
57101;SDS011;42982;54.558;18.508;2022-09-09T01:33:52;2.30;;;0.98;;
57101;SDS011;42982;54.558;18.508;2022-09-09T01:34:56;6.13;;;1.73;;
57101;SDS011;42982;54.558;18.508;2022-09-09T01:36:10;2.70;;;1.10;;
57101;SDS011;42982;54.558;18.508;2022-09-09T01:37:31;4.95;;;1.45;;
57101;SDS011;42982;54.558;18.508;2022-09-09T01:38:33;3.72;;;1.40;;
57101;SDS011;42982;54.558;18.508;2022-09-09T01:39:43;6.43;;;1.45;;
57101;SDS011;42982;54.558;18.508;2022-09-09T01:40:49;5.60;;;1.60;;
57101;SDS011;42982;54.558;18.508;2022-09-09T01:41:54;3.15;;;1.40;;
57101;SDS011;42982;54.558;18.508;2022-09-09T01:43:00;6.68;;;1.58;;
57101;SDS011;42982;54.558;18.508;2022-09-09T01:44:05;9.77;;;1.35;;
57101;SDS011;42982;54.558;18.508;2022-09-09T01:45:12;5.18;;;1.50;;
57101;SDS011;42982;54.558;18.508;2022-09-09T01:46:17;5.43;;;1.30;;
57101;SDS011;42982;54.558;18.508;2022-09-09T01:47:22;3.38;;;1.33;;
57101;SDS011;42982;54.558;18.508;2022-09-09T01:48:59;2.65;;;1.38;;
57101;SDS011;42982;54.558;18.508;2022-09-09T01:50:07;2.10;;;1.38;;
57101;SDS011;42982;54.558;18.508;2022-09-09T01:51:18;1.65;;;1.05;;
57101;SDS011;42982;54.558;18.508;2022-09-09T01:52:25;3.63;;;1.02;;
57101;SDS011;42982;54.558;18.508;2022-09-09T01:53:29;3.70;;;1.65;;
57101;SDS011;42982;54.558;18.508;2022-09-09T01:54:31;2.50;;;1.50;;
57101;SDS011;42982;54.558;18.508;2022-09-09T01:55:41;3.65;;;1.40;;
57101;SDS011;42982;54.558;18.508;2022-09-09T01:56:56;3.95;;;1.55;;
57101;SDS011;42982;54.558;18.508;2022-09-09T02:00:18;2.85;;;1.50;;
57101;SDS011;42982;54.558;18.508;2022-09-09T02:04:28;5.40;;;1.40;;
57101;SDS011;42982;54.558;18.508;2022-09-09T02:07:03;3.35;;;1.45;;
57101;SDS011;42982;54.558;18.508;2022-09-09T02:08:20;4.68;;;1.30;;
57101;SDS011;42982;54.558;18.508;2022-09-09T02:09:47;2.15;;;1.23;;
57101;SDS011;42982;54.558;18.508;2022-09-09T02:11:01;3.90;;;1.40;;
57101;SDS011;42982;54.558;18.508;2022-09-09T02:12:20;4.82;;;1.63;;
57101;SDS011;42982;54.558;18.508;2022-09-09T02:13:30;1.83;;;1.25;;
57101;SDS011;42982;54.558;18.508;2022-09-09T02:14:42;5.93;;;1.40;;
57101;SDS011;42982;54.558;18.508;2022-09-09T02:15:59;3.03;;;1.57;;
57101;SDS011;42982;54.558;18.508;2022-09-09T02:17:10;3.85;;;1.45;;
57101;SDS011;42982;54.558;18.508;2022-09-09T02:18:34;3.35;;;1.60;;
57101;SDS011;42982;54.558;18.508;2022-09-09T02:20:05;3.75;;;1.42;;
57101;SDS011;42982;54.558;18.508;2022-09-09T02:21:21;5.47;;;1.73;;
57101;SDS011;42982;54.558;18.508;2022-09-09T02:22:29;9.77;;;1.60;;
57101;SDS011;42982;54.558;18.508;2022-09-09T02:23:40;4.43;;;1.48;;
57101;SDS011;42982;54.558;18.508;2022-09-09T02:24:47;7.22;;;2.38;;
57101;SDS011;42982;54.558;18.508;2022-09-09T02:26:00;5.57;;;1.63;;
57101;SDS011;42982;54.558;18.508;2022-09-09T02:27:08;3.38;;;1.50;;
57101;SDS011;42982;54.558;18.508;2022-09-09T02:28:14;2.92;;;1.55;;
57101;SDS011;42982;54.558;18.508;2022-09-09T02:29:22;5.80;;;1.73;;
57101;SDS011;42982;54.558;18.508;2022-09-09T02:30:33;2.15;;;1.50;;
57101;SDS011;42982;54.558;18.508;2022-09-09T02:31:44;5.50;;;1.48;;
57101;SDS011;42982;54.558;18.508;2022-09-09T02:32:56;8.43;;;1.30;;
57101;SDS011;42982;54.558;18.508;2022-09-09T02:34:20;3.35;;;1.15;;
57101;SDS011;42982;54.558;18.508;2022-09-09T02:35:25;2.58;;;1.25;;
57101;SDS011;42982;54.558;18.508;2022-09-09T02:36:30;5.55;;;1.30;;
57101;SDS011;42982;54.558;18.508;2022-09-09T02:37:41;6.77;;;1.13;;
57101;SDS011;42982;54.558;18.508;2022-09-09T02:38:47;2.53;;;1.40;;
57101;SDS011;42982;54.558;18.508;2022-09-09T02:39:56;3.50;;;1.40;;
57101;SDS011;42982;54.558;18.508;2022-09-09T02:40:59;5.80;;;1.73;;
57101;SDS011;42982;54.558;18.508;2022-09-09T02:42:05;4.18;;;1.60;;
57101;SDS011;42982;54.558;18.508;2022-09-09T02:43:13;2.72;;;1.30;;
57101;SDS011;42982;54.558;18.508;2022-09-09T02:44:20;3.72;;;1.63;;
57101;SDS011;42982;54.558;18.508;2022-09-09T02:45:25;5.53;;;1.50;;
57101;SDS011;42982;54.558;18.508;2022-09-09T02:50:34;2.13;;;1.38;;
57101;SDS011;42982;54.558;18.508;2022-09-09T02:52:02;2.60;;;1.27;;
57101;SDS011;42982;54.558;18.508;2022-09-09T02:53:12;3.78;;;1.40;;
57101;SDS011;42982;54.558;18.508;2022-09-09T02:54:28;3.78;;;1.40;;
57101;SDS011;42982;54.558;18.508;2022-09-09T02:56:51;2.50;;;1.15;;
57101;SDS011;42982;54.558;18.508;2022-09-09T02:58:08;4.03;;;1.45;;
57101;SDS011;42982;54.558;18.508;2022-09-09T02:59:13;2.17;;;1.20;;
57101;SDS011;42982;54.558;18.508;2022-09-09T03:00:26;6.13;;;1.40;;
57101;SDS011;42982;54.558;18.508;2022-09-09T03:01:31;5.60;;;1.30;;
57101;SDS011;42982;54.558;18.508;2022-09-09T03:02:36;1.98;;;1.17;;
57101;SDS011;42982;54.558;18.508;2022-09-09T03:03:43;3.15;;;1.60;;
57101;SDS011;42982;54.558;18.508;2022-09-09T03:04:50;5.82;;;1.20;;
57101;SDS011;42982;54.558;18.508;2022-09-09T03:05:53;2.75;;;1.17;;
57101;SDS011;42982;54.558;18.508;2022-09-09T03:06:58;3.58;;;1.42;;
57101;SDS011;42982;54.558;18.508;2022-09-09T03:08:02;2.20;;;1.10;;
57101;SDS011;42982;54.558;18.508;2022-09-09T03:09:06;2.58;;;1.55;;
57101;SDS011;42982;54.558;18.508;2022-09-09T03:10:11;2.72;;;1.42;;
57101;SDS011;42982;54.558;18.508;2022-09-09T03:11:17;2.67;;;1.33;;
57101;SDS011;42982;54.558;18.508;2022-09-09T03:12:25;3.28;;;1.48;;
57101;SDS011;42982;54.558;18.508;2022-09-09T03:13:29;3.92;;;1.58;;
57101;SDS011;42982;54.558;18.508;2022-09-09T03:14:35;6.43;;;1.60;;
57101;SDS011;42982;54.558;18.508;2022-09-09T03:15:39;3.78;;;1.75;;
57101;SDS011;42982;54.558;18.508;2022-09-09T03:16:51;4.25;;;1.42;;
57101;SDS011;42982;54.558;18.508;2022-09-09T03:17:53;4.05;;;1.70;;
57101;SDS011;42982;54.558;18.508;2022-09-09T03:18:58;2.28;;;1.40;;
57101;SDS011;42982;54.558;18.508;2022-09-09T03:20:05;4.20;;;1.20;;
57101;SDS011;42982;54.558;18.508;2022-09-09T03:21:11;5.03;;;1.55;;
57101;SDS011;42982;54.558;18.508;2022-09-09T03:22:16;3.35;;;1.73;;
57101;SDS011;42982;54.558;18.508;2022-09-09T03:23:19;5.00;;;1.50;;
57101;SDS011;42982;54.558;18.508;2022-09-09T03:24:23;3.17;;;1.50;;
57101;SDS011;42982;54.558;18.508;2022-09-09T03:25:31;3.60;;;1.33;;
57101;SDS011;42982;54.558;18.508;2022-09-09T03:26:34;5.75;;;1.70;;
57101;SDS011;42982;54.558;18.508;2022-09-09T03:27:46;3.15;;;1.60;;
57101;SDS011;42982;54.558;18.508;2022-09-09T03:28:51;3.05;;;1.50;;
57101;SDS011;42982;54.558;18.508;2022-09-09T03:29:57;4.85;;;1.63;;
57101;SDS011;42982;54.558;18.508;2022-09-09T03:31:07;2.92;;;1.50;;
57101;SDS011;42982;54.558;18.508;2022-09-09T03:32:14;1.95;;;1.30;;
57101;SDS011;42982;54.558;18.508;2022-09-09T03:33:23;5.50;;;1.58;;
57101;SDS011;42982;54.558;18.508;2022-09-09T03:34:27;3.60;;;1.48;;
57101;SDS011;42982;54.558;18.508;2022-09-09T03:35:32;3.95;;;1.73;;
57101;SDS011;42982;54.558;18.508;2022-09-09T03:36:35;3.22;;;1.60;;
57101;SDS011;42982;54.558;18.508;2022-09-09T03:37:39;6.20;;;1.50;;
57101;SDS011;42982;54.558;18.508;2022-09-09T03:38:46;2.40;;;1.55;;
57101;SDS011;42982;54.558;18.508;2022-09-09T03:39:49;2.35;;;1.55;;
57101;SDS011;42982;54.558;18.508;2022-09-09T03:41:00;2.05;;;1.27;;
57101;SDS011;42982;54.558;18.508;2022-09-09T03:42:04;3.33;;;1.40;;
57101;SDS011;42982;54.558;18.508;2022-09-09T03:43:13;1.98;;;1.08;;
57101;SDS011;42982;54.558;18.508;2022-09-09T03:44:20;6.47;;;1.65;;
57101;SDS011;42982;54.558;18.508;2022-09-09T03:45:25;8.15;;;1.63;;
57101;SDS011;42982;54.558;18.508;2022-09-09T03:46:30;3.90;;;1.60;;
57101;SDS011;42982;54.558;18.508;2022-09-09T03:47:36;3.22;;;1.50;;
57101;SDS011;42982;54.558;18.508;2022-09-09T03:48:44;4.85;;;1.70;;
57101;SDS011;42982;54.558;18.508;2022-09-09T03:49:47;5.95;;;1.50;;
57101;SDS011;42982;54.558;18.508;2022-09-09T03:50:51;4.93;;;1.65;;
57101;SDS011;42982;54.558;18.508;2022-09-09T03:51:56;5.63;;;1.77;;
57101;SDS011;42982;54.558;18.508;2022-09-09T03:53:20;3.05;;;1.40;;
57101;SDS011;42982;54.558;18.508;2022-09-09T03:54:23;7.32;;;1.88;;
57101;SDS011;42982;54.558;18.508;2022-09-09T03:55:28;6.90;;;2.17;;
57101;SDS011;42982;54.558;18.508;2022-09-09T03:57:45;5.60;;;2.10;;
57101;SDS011;42982;54.558;18.508;2022-09-09T03:58:58;4.70;;;1.90;;
57101;SDS011;42982;54.558;18.508;2022-09-09T04:00:02;4.57;;;2.33;;
57101;SDS011;42982;54.558;18.508;2022-09-09T04:01:17;4.65;;;1.83;;
57101;SDS011;42982;54.558;18.508;2022-09-09T04:02:22;4.22;;;1.88;;
57101;SDS011;42982;54.558;18.508;2022-09-09T04:03:25;3.55;;;2.08;;
57101;SDS011;42982;54.558;18.508;2022-09-09T04:04:27;6.65;;;2.60;;
57101;SDS011;42982;54.558;18.508;2022-09-09T04:05:34;5.93;;;2.08;;
57101;SDS011;42982;54.558;18.508;2022-09-09T04:06:42;4.35;;;1.90;;
57101;SDS011;42982;54.558;18.508;2022-09-09T04:07:47;5.57;;;2.25;;
57101;SDS011;42982;54.558;18.508;2022-09-09T04:08:55;3.95;;;1.95;;
57101;SDS011;42982;54.558;18.508;2022-09-09T04:10:01;6.38;;;2.03;;
57101;SDS011;42982;54.558;18.508;2022-09-09T04:11:06;4.28;;;2.15;;
57101;SDS011;42982;54.558;18.508;2022-09-09T04:12:16;5.80;;;1.98;;
57101;SDS011;42982;54.558;18.508;2022-09-09T04:13:18;4.03;;;2.17;;
57101;SDS011;42982;54.558;18.508;2022-09-09T04:14:26;2.92;;;1.95;;
57101;SDS011;42982;54.558;18.508;2022-09-09T04:15:30;6.00;;;2.30;;
57101;SDS011;42982;54.558;18.508;2022-09-09T04:16:33;4.63;;;2.58;;
57101;SDS011;42982;54.558;18.508;2022-09-09T04:17:41;9.45;;;2.22;;
57101;SDS011;42982;54.558;18.508;2022-09-09T04:18:43;4.90;;;2.50;;
57101;SDS011;42982;54.558;18.508;2022-09-09T04:19:51;4.50;;;2.40;;
57101;SDS011;42982;54.558;18.508;2022-09-09T04:20:57;4.80;;;2.22;;
57101;SDS011;42982;54.558;18.508;2022-09-09T04:22:07;3.55;;;2.35;;
57101;SDS011;42982;54.558;18.508;2022-09-09T04:23:15;9.48;;;2.75;;
57101;SDS011;42982;54.558;18.508;2022-09-09T04:24:20;6.15;;;2.13;;
57101;SDS011;42982;54.558;18.508;2022-09-09T04:25:23;4.63;;;2.47;;
57101;SDS011;42982;54.558;18.508;2022-09-09T04:26:31;4.82;;;2.30;;
57101;SDS011;42982;54.558;18.508;2022-09-09T04:27:40;8.18;;;2.58;;
57101;SDS011;42982;54.558;18.508;2022-09-09T04:28:44;6.40;;;2.47;;
57101;SDS011;42982;54.558;18.508;2022-09-09T04:29:50;6.75;;;2.47;;
57101;SDS011;42982;54.558;18.508;2022-09-09T04:31:06;7.63;;;2.60;;
57101;SDS011;42982;54.558;18.508;2022-09-09T04:32:14;4.18;;;2.42;;
57101;SDS011;42982;54.558;18.508;2022-09-09T04:33:23;4.60;;;2.33;;
57101;SDS011;42982;54.558;18.508;2022-09-09T04:34:48;5.32;;;2.83;;
57101;SDS011;42982;54.558;18.508;2022-09-09T04:35:51;11.10;;;2.33;;
57101;SDS011;42982;54.558;18.508;2022-09-09T04:37:04;6.85;;;2.58;;
57101;SDS011;42982;54.558;18.508;2022-09-09T04:38:06;4.63;;;2.35;;
57101;SDS011;42982;54.558;18.508;2022-09-09T04:39:10;6.85;;;2.33;;
57101;SDS011;42982;54.558;18.508;2022-09-09T04:40:15;5.75;;;2.55;;
57101;SDS011;42982;54.558;18.508;2022-09-09T04:41:18;8.02;;;2.65;;
57101;SDS011;42982;54.558;18.508;2022-09-09T04:42:24;6.00;;;2.60;;
57101;SDS011;42982;54.558;18.508;2022-09-09T04:43:29;5.10;;;2.45;;
57101;SDS011;42982;54.558;18.508;2022-09-09T04:44:31;6.97;;;2.60;;
57101;SDS011;42982;54.558;18.508;2022-09-09T04:45:35;4.95;;;2.20;;
57101;SDS011;42982;54.558;18.508;2022-09-09T04:46:43;10.50;;;3.22;;
57101;SDS011;42982;54.558;18.508;2022-09-09T04:47:49;6.15;;;2.92;;
57101;SDS011;42982;54.558;18.508;2022-09-09T04:48:54;5.20;;;2.67;;
57101;SDS011;42982;54.558;18.508;2022-09-09T04:50:03;5.05;;;2.33;;
57101;SDS011;42982;54.558;18.508;2022-09-09T04:51:12;6.03;;;2.78;;
57101;SDS011;42982;54.558;18.508;2022-09-09T04:52:19;5.57;;;2.70;;
57101;SDS011;42982;54.558;18.508;2022-09-09T04:53:30;6.55;;;2.97;;
57101;SDS011;42982;54.558;18.508;2022-09-09T04:54:32;5.95;;;2.80;;
57101;SDS011;42982;54.558;18.508;2022-09-09T04:55:41;6.93;;;2.65;;
57101;SDS011;42982;54.558;18.508;2022-09-09T04:56:43;7.00;;;2.60;;
57101;SDS011;42982;54.558;18.508;2022-09-09T04:57:49;9.15;;;2.92;;
57101;SDS011;42982;54.558;18.508;2022-09-09T04:58:57;6.75;;;2.72;;
57101;SDS011;42982;54.558;18.508;2022-09-09T05:00:14;4.45;;;2.80;;
57101;SDS011;42982;54.558;18.508;2022-09-09T05:01:22;5.88;;;2.75;;
57101;SDS011;42982;54.558;18.508;2022-09-09T05:02:27;6.95;;;3.15;;
57101;SDS011;42982;54.558;18.508;2022-09-09T05:03:32;6.05;;;2.35;;
57101;SDS011;42982;54.558;18.508;2022-09-09T05:04:35;9.27;;;3.00;;
57101;SDS011;42982;54.558;18.508;2022-09-09T05:05:40;5.18;;;2.97;;
57101;SDS011;42982;54.558;18.508;2022-09-09T05:06:45;5.15;;;2.47;;
57101;SDS011;42982;54.558;18.508;2022-09-09T05:07:48;5.60;;;2.72;;
57101;SDS011;42982;54.558;18.508;2022-09-09T05:08:50;6.28;;;2.90;;
57101;SDS011;42982;54.558;18.508;2022-09-09T05:09:57;11.15;;;3.00;;
57101;SDS011;42982;54.558;18.508;2022-09-09T05:10:59;5.72;;;3.20;;
57101;SDS011;42982;54.558;18.508;2022-09-09T05:12:08;5.75;;;3.00;;
57101;SDS011;42982;54.558;18.508;2022-09-09T05:13:12;8.70;;;3.10;;
57101;SDS011;42982;54.558;18.508;2022-09-09T05:14:20;5.45;;;3.00;;
57101;SDS011;42982;54.558;18.508;2022-09-09T05:15:31;8.43;;;3.15;;
57101;SDS011;42982;54.558;18.508;2022-09-09T05:16:33;6.22;;;3.05;;
57101;SDS011;42982;54.558;18.508;2022-09-09T05:17:38;7.15;;;2.97;;
57101;SDS011;42982;54.558;18.508;2022-09-09T05:18:49;10.35;;;3.17;;
57101;SDS011;42982;54.558;18.508;2022-09-09T05:19:56;5.70;;;2.90;;
57101;SDS011;42982;54.558;18.508;2022-09-09T05:21:01;5.82;;;2.70;;
57101;SDS011;42982;54.558;18.508;2022-09-09T05:22:05;8.60;;;3.08;;
57101;SDS011;42982;54.558;18.508;2022-09-09T05:23:16;5.35;;;2.63;;
57101;SDS011;42982;54.558;18.508;2022-09-09T05:24:22;5.85;;;2.80;;
57101;SDS011;42982;54.558;18.508;2022-09-09T05:25:32;5.60;;;2.75;;
57101;SDS011;42982;54.558;18.508;2022-09-09T05:26:37;5.85;;;3.45;;
57101;SDS011;42982;54.558;18.508;2022-09-09T05:27:42;7.75;;;2.65;;
57101;SDS011;42982;54.558;18.508;2022-09-09T05:28:46;6.90;;;3.00;;
57101;SDS011;42982;54.558;18.508;2022-09-09T05:29:54;6.18;;;2.97;;
57101;SDS011;42982;54.558;18.508;2022-09-09T05:31:03;7.53;;;2.75;;
57101;SDS011;42982;54.558;18.508;2022-09-09T05:32:11;7.50;;;2.72;;
57101;SDS011;42982;54.558;18.508;2022-09-09T05:33:20;6.20;;;2.47;;
57101;SDS011;42982;54.558;18.508;2022-09-09T05:34:26;6.63;;;2.50;;
57101;SDS011;42982;54.558;18.508;2022-09-09T05:35:28;5.97;;;2.50;;
57101;SDS011;42982;54.558;18.508;2022-09-09T05:36:37;7.88;;;3.58;;
57101;SDS011;42982;54.558;18.508;2022-09-09T05:37:40;7.25;;;2.15;;
57101;SDS011;42982;54.558;18.508;2022-09-09T05:38:43;4.80;;;2.47;;
57101;SDS011;42982;54.558;18.508;2022-09-09T05:39:45;6.70;;;2.33;;
57101;SDS011;42982;54.558;18.508;2022-09-09T05:40:52;4.18;;;2.35;;
57101;SDS011;42982;54.558;18.508;2022-09-09T05:41:59;7.20;;;2.92;;
57101;SDS011;42982;54.558;18.508;2022-09-09T05:43:04;5.32;;;2.60;;
57101;SDS011;42982;54.558;18.508;2022-09-09T05:44:12;4.43;;;2.78;;
57101;SDS011;42982;54.558;18.508;2022-09-09T05:45:15;4.38;;;2.50;;
57101;SDS011;42982;54.558;18.508;2022-09-09T05:46:21;5.75;;;2.50;;
57101;SDS011;42982;54.558;18.508;2022-09-09T05:47:26;4.88;;;2.15;;
57101;SDS011;42982;54.558;18.508;2022-09-09T05:48:34;3.25;;;2.20;;
57101;SDS011;42982;54.558;18.508;2022-09-09T05:49:55;3.90;;;1.90;;
57101;SDS011;42982;54.558;18.508;2022-09-09T05:51:00;12.75;;;2.20;;
57101;SDS011;42982;54.558;18.508;2022-09-09T05:52:06;3.35;;;1.88;;
57101;SDS011;42982;54.558;18.508;2022-09-09T05:53:10;4.22;;;1.98;;
57101;SDS011;42982;54.558;18.508;2022-09-09T05:54:18;4.85;;;2.35;;
57101;SDS011;42982;54.558;18.508;2022-09-09T05:55:28;5.35;;;2.38;;
57101;SDS011;42982;54.558;18.508;2022-09-09T05:56:31;7.90;;;2.20;;
57101;SDS011;42982;54.558;18.508;2022-09-09T05:57:36;4.10;;;1.95;;
57101;SDS011;42982;54.558;18.508;2022-09-09T05:58:40;5.05;;;2.10;;
57101;SDS011;42982;54.558;18.508;2022-09-09T05:59:46;4.18;;;2.70;;
57101;SDS011;42982;54.558;18.508;2022-09-09T06:00:50;7.72;;;2.80;;
57101;SDS011;42982;54.558;18.508;2022-09-09T06:01:59;8.50;;;2.40;;
57101;SDS011;42982;54.558;18.508;2022-09-09T06:03:11;2.85;;;1.95;;
57101;SDS011;42982;54.558;18.508;2022-09-09T06:04:17;9.88;;;2.78;;
57101;SDS011;42982;54.558;18.508;2022-09-09T06:05:26;4.65;;;1.90;;
57101;SDS011;42982;54.558;18.508;2022-09-09T06:06:34;3.15;;;1.65;;
57101;SDS011;42982;54.558;18.508;2022-09-09T06:07:52;2.28;;;1.63;;
57101;SDS011;42982;54.558;18.508;2022-09-09T06:08:56;6.35;;;2.00;;
57101;SDS011;42982;54.558;18.508;2022-09-09T06:10:01;4.30;;;1.60;;
57101;SDS011;42982;54.558;18.508;2022-09-09T06:11:09;5.50;;;2.53;;
57101;SDS011;42982;54.558;18.508;2022-09-09T06:12:20;4.18;;;2.00;;
57101;SDS011;42982;54.558;18.508;2022-09-09T06:13:22;3.22;;;2.15;;
57101;SDS011;42982;54.558;18.508;2022-09-09T06:14:25;8.73;;;2.30;;
57101;SDS011;42982;54.558;18.508;2022-09-09T06:15:33;4.38;;;2.00;;
57101;SDS011;42982;54.558;18.508;2022-09-09T06:16:38;3.83;;;1.90;;
57101;SDS011;42982;54.558;18.508;2022-09-09T06:17:58;5.60;;;2.50;;
57101;SDS011;42982;54.558;18.508;2022-09-09T06:19:01;6.45;;;2.08;;
57101;SDS011;42982;54.558;18.508;2022-09-09T06:20:10;5.35;;;1.65;;
57101;SDS011;42982;54.558;18.508;2022-09-09T06:21:15;3.22;;;1.85;;
57101;SDS011;42982;54.558;18.508;2022-09-09T06:22:17;3.67;;;1.90;;
57101;SDS011;42982;54.558;18.508;2022-09-09T06:23:28;4.78;;;1.73;;
57101;SDS011;42982;54.558;18.508;2022-09-09T06:24:37;3.83;;;1.95;;
57101;SDS011;42982;54.558;18.508;2022-09-09T06:25:41;3.90;;;1.88;;
57101;SDS011;42982;54.558;18.508;2022-09-09T06:26:49;4.30;;;1.88;;
57101;SDS011;42982;54.558;18.508;2022-09-09T06:27:59;5.28;;;1.92;;
57101;SDS011;42982;54.558;18.508;2022-09-09T06:29:04;4.53;;;2.03;;
57101;SDS011;42982;54.558;18.508;2022-09-09T06:30:11;5.05;;;1.80;;
57101;SDS011;42982;54.558;18.508;2022-09-09T06:31:20;5.80;;;1.70;;
57101;SDS011;42982;54.558;18.508;2022-09-09T06:32:25;3.83;;;1.75;;
57101;SDS011;42982;54.558;18.508;2022-09-09T06:33:41;4.80;;;1.50;;
57101;SDS011;42982;54.558;18.508;2022-09-09T06:35:02;5.43;;;1.67;;
57101;SDS011;42982;54.558;18.508;2022-09-09T06:36:13;2.97;;;1.52;;
57101;SDS011;42982;54.558;18.508;2022-09-09T06:37:19;5.07;;;1.70;;
57101;SDS011;42982;54.558;18.508;2022-09-09T06:38:27;4.18;;;1.48;;
57101;SDS011;42982;54.558;18.508;2022-09-09T06:39:32;2.40;;;1.48;;
57101;SDS011;42982;54.558;18.508;2022-09-09T06:40:39;2.72;;;1.60;;
57101;SDS011;42982;54.558;18.508;2022-09-09T06:41:42;4.35;;;1.80;;
57101;SDS011;42982;54.558;18.508;2022-09-09T06:43:08;5.13;;;1.65;;
57101;SDS011;42982;54.558;18.508;2022-09-09T06:44:20;4.82;;;1.60;;
57101;SDS011;42982;54.558;18.508;2022-09-09T06:45:23;3.83;;;1.95;;
57101;SDS011;42982;54.558;18.508;2022-09-09T06:46:30;4.95;;;1.55;;
57101;SDS011;42982;54.558;18.508;2022-09-09T06:47:35;7.65;;;1.92;;
57101;SDS011;42982;54.558;18.508;2022-09-09T06:48:38;8.43;;;1.83;;
57101;SDS011;42982;54.558;18.508;2022-09-09T06:49:49;3.03;;;2.00;;
57101;SDS011;42982;54.558;18.508;2022-09-09T06:51:02;2.60;;;1.35;;
57101;SDS011;42982;54.558;18.508;2022-09-09T06:52:09;5.70;;;1.70;;
57101;SDS011;42982;54.558;18.508;2022-09-09T06:53:12;4.50;;;1.92;;
57101;SDS011;42982;54.558;18.508;2022-09-09T06:54:22;2.72;;;1.45;;
57101;SDS011;42982;54.558;18.508;2022-09-09T06:55:25;5.28;;;1.35;;
57101;SDS011;42982;54.558;18.508;2022-09-09T06:57:40;2.53;;;1.70;;
57101;SDS011;42982;54.558;18.508;2022-09-09T06:58:51;4.10;;;1.50;;
57101;SDS011;42982;54.558;18.508;2022-09-09T06:59:59;3.50;;;1.42;;
57101;SDS011;42982;54.558;18.508;2022-09-09T07:01:03;2.33;;;1.52;;
57101;SDS011;42982;54.558;18.508;2022-09-09T07:02:10;4.47;;;1.90;;
57101;SDS011;42982;54.558;18.508;2022-09-09T07:03:12;3.88;;;1.95;;
57101;SDS011;42982;54.558;18.508;2022-09-09T07:04:16;3.75;;;1.73;;
57101;SDS011;42982;54.558;18.508;2022-09-09T07:05:19;4.05;;;1.70;;
57101;SDS011;42982;54.558;18.508;2022-09-09T07:06:23;2.55;;;1.60;;
57101;SDS011;42982;54.558;18.508;2022-09-09T07:07:34;4.45;;;1.50;;
57101;SDS011;42982;54.558;18.508;2022-09-09T07:08:43;6.47;;;1.80;;
57101;SDS011;42982;54.558;18.508;2022-09-09T07:09:52;2.60;;;1.80;;
57101;SDS011;42982;54.558;18.508;2022-09-09T07:11:03;2.40;;;1.52;;
57101;SDS011;42982;54.558;18.508;2022-09-09T07:12:10;2.83;;;1.50;;
57101;SDS011;42982;54.558;18.508;2022-09-09T07:13:26;4.97;;;1.63;;
57101;SDS011;42982;54.558;18.508;2022-09-09T07:14:31;5.38;;;1.40;;
57101;SDS011;42982;54.558;18.508;2022-09-09T07:15:39;3.90;;;1.80;;
57101;SDS011;42982;54.558;18.508;2022-09-09T07:16:41;4.80;;;1.92;;
57101;SDS011;42982;54.558;18.508;2022-09-09T07:17:50;5.18;;;1.55;;
57101;SDS011;42982;54.558;18.508;2022-09-09T07:18:58;5.00;;;1.58;;
57101;SDS011;42982;54.558;18.508;2022-09-09T07:20:05;5.60;;;1.70;;
57101;SDS011;42982;54.558;18.508;2022-09-09T07:21:10;5.43;;;1.60;;
57101;SDS011;42982;54.558;18.508;2022-09-09T07:22:13;3.17;;;1.55;;
57101;SDS011;42982;54.558;18.508;2022-09-09T07:23:18;3.90;;;1.75;;
57101;SDS011;42982;54.558;18.508;2022-09-09T07:24:23;4.75;;;1.98;;
57101;SDS011;42982;54.558;18.508;2022-09-09T07:25:26;5.15;;;1.80;;
57101;SDS011;42982;54.558;18.508;2022-09-09T07:26:33;12.40;;;2.13;;
57101;SDS011;42982;54.558;18.508;2022-09-09T07:27:36;3.97;;;1.42;;
57101;SDS011;42982;54.558;18.508;2022-09-09T07:28:41;12.98;;;1.70;;